Terminal Aerodrome Forecast
Issued by NWS Des Moines, IA

Home | Current Version | Previous Version | Text Only | Print | Product List | Glossary On
Versions: 1 2 3 4 5 6 7 8 9 10 11 12 13 14 15 16 17 18 19 20 21 22 23 24 25 26 27 28 29 30 31 32 33 34 35 36 37 38 39 40 41 42 43 44 45 46
000
FTUS43 KDMX 230520
TAFDSM
TAF
KDSM 230520Z 2306/2406 18007KT P6SM FEW250
     FM231100 27009KT P6SM SCT120 WS020/33030KT
     FM231600 30015G22KT P6SM BKN130
     FM231800 31017G26KT P6SM SCT230
     FM232200 31020G26KT P6SM BKN100
     FM240000 32018KT P6SM SCT110 WS020/32035KT=

USA.gov is the U.S. government's official web portal to all federal, state and local government web resources and services.